sensor_id;sensor_type;location;lat;lon;timestamp;pressure;altitude;pressure_sealevel;temperature;humidity
19748;BME280;10032;51.386;12.516;2022-12-17T00:01:11;100697.34;;;-3.59;100.00
19748;BME280;10032;51.386;12.516;2022-12-17T00:03:55;100703.72;;;-3.52;100.00
19748;BME280;10032;51.386;12.516;2022-12-17T00:06:39;100705.25;;;-3.49;100.00
19748;BME280;10032;51.386;12.516;2022-12-17T00:09:23;100699.97;;;-3.49;100.00
19748;BME280;10032;51.386;12.516;2022-12-17T00:12:07;100713.47;;;-3.52;100.00
19748;BME280;10032;51.386;12.516;2022-12-17T00:14:51;100711.13;;;-3.55;100.00
19748;BME280;10032;51.386;12.516;2022-12-17T00:17:35;100714.19;;;-3.50;100.00
19748;BME280;10032;51.386;12.516;2022-12-17T00:20:19;100713.72;;;-3.46;100.00
19748;BME280;10032;51.386;12.516;2022-12-17T00:23:03;100722.88;;;-3.40;100.00
19748;BME280;10032;51.386;12.516;2022-12-17T00:25:52;100721.09;;;-3.40;100.00
19748;BME280;10032;51.386;12.516;2022-12-17T00:28:37;100724.56;;;-3.39;100.00
19748;BME280;10032;51.386;12.516;2022-12-17T00:31:21;100724.56;;;-3.39;100.00
19748;BME280;10032;51.386;12.516;2022-12-17T00:34:05;100730.41;;;-3.36;100.00
19748;BME280;10032;51.386;12.516;2022-12-17T00:36:49;100729.41;;;-3.35;100.00
19748;BME280;10032;51.386;12.516;2022-12-17T00:39:34;100724.97;;;-3.34;100.00
19748;BME280;10032;51.386;12.516;2022-12-17T00:42:18;100729.13;;;-3.32;100.00
19748;BME280;10032;51.386;12.516;2022-12-17T00:45:02;100739.03;;;-3.34;100.00
19748;BME280;10032;51.386;12.516;2022-12-17T00:47:47;100737.91;;;-3.31;100.00
19748;BME280;10032;51.386;12.516;2022-12-17T00:50:30;100749.34;;;-3.31;100.00
19748;BME280;10032;51.386;12.516;2022-12-17T00:53:14;100751.69;;;-3.28;100.00
19748;BME280;10032;51.386;12.516;2022-12-17T00:55:58;100745.25;;;-3.25;100.00
19748;BME280;10032;51.386;12.516;2022-12-17T00:58:42;100742.59;;;-3.25;100.00
19748;BME280;10032;51.386;12.516;2022-12-17T01:01:26;100740.81;;;-3.25;100.00
19748;BME280;10032;51.386;12.516;2022-12-17T01:04:14;100737.63;;;-3.28;100.00
19748;BME280;10032;51.386;12.516;2022-12-17T01:06:58;100737.63;;;-3.28;100.00
19748;BME280;10032;51.386;12.516;2022-12-17T01:09:42;100742.59;;;-3.25;100.00
19748;BME280;10032;51.386;12.516;2022-12-17T01:12:26;100746.25;;;-3.26;100.00
19748;BME280;10032;51.386;12.516;2022-12-17T01:15:11;100748.50;;;-3.31;100.00
19748;BME280;10032;51.386;12.516;2022-12-17T01:17:54;100744.47;;;-3.35;100.00
19748;BME280;10032;51.386;12.516;2022-12-17T01:20:38;100748.81;;;-3.34;100.00
19748;BME280;10032;51.386;12.516;2022-12-17T01:23:22;100751.44;;;-3.34;100.00
19748;BME280;10032;51.386;12.516;2022-12-17T01:26:06;100763.31;;;-3.38;100.00
19748;BME280;10032;51.386;12.516;2022-12-17T01:28:50;100768.28;;;-3.35;100.00
19748;BME280;10032;51.386;12.516;2022-12-17T01:31:35;100767.16;;;-3.33;100.00
19748;BME280;10032;51.386;12.516;2022-12-17T01:34:18;100765.09;;;-3.29;100.00
19748;BME280;10032;51.386;12.516;2022-12-17T01:37:03;100757.28;;;-3.31;100.00
19748;BME280;10032;51.386;12.516;2022-12-17T01:39:47;100762.13;;;-3.26;100.00
19748;BME280;10032;51.386;12.516;2022-12-17T01:42:44;100764.63;;;-3.25;100.00
19748;BME280;10032;51.386;12.516;2022-12-17T01:45:41;100773.44;;;-3.24;100.00
19748;BME280;10032;51.386;12.516;2022-12-17T01:48:35;100777.44;;;-3.20;100.00
19748;BME280;10032;51.386;12.516;2022-12-17T01:51:23;100770.19;;;-3.18;100.00
19748;BME280;10032;51.386;12.516;2022-12-17T01:54:08;100775.50;;;-3.18;100.00
19748;BME280;10032;51.386;12.516;2022-12-17T01:56:52;100780.63;;;-3.17;100.00
19748;BME280;10032;51.386;12.516;2022-12-17T01:59:56;100785.81;;;-3.25;100.00
19748;BME280;10032;51.386;12.516;2022-12-17T02:02:42;100785.69;;;-3.23;100.00
19748;BME280;10032;51.386;12.516;2022-12-17T02:05:32;100789.53;;;-3.18;100.00
19748;BME280;10032;51.386;12.516;2022-12-17T02:08:21;100792.06;;;-3.16;100.00
19748;BME280;10032;51.386;12.516;2022-12-17T02:14:15;100789.13;;;-3.13;100.00
19748;BME280;10032;51.386;12.516;2022-12-17T02:17:05;100785.19;;;-3.09;100.00
19748;BME280;10032;51.386;12.516;2022-12-17T02:26:34;100790.72;;;-3.03;100.00
19748;BME280;10032;51.386;12.516;2022-12-17T02:29:20;100781.81;;;-3.02;100.00
19748;BME280;10032;51.386;12.516;2022-12-17T02:32:06;100796.56;;;-2.99;100.00
19748;BME280;10032;51.386;12.516;2022-12-17T02:34:51;100788.94;;;-3.02;100.00
19748;BME280;10032;51.386;12.516;2022-12-17T02:37:35;100804.97;;;-3.04;100.00
19748;BME280;10032;51.386;12.516;2022-12-17T02:40:21;100791.59;;;-3.02;100.00
19748;BME280;10032;51.386;12.516;2022-12-17T02:43:07;100791.59;;;-3.02;100.00
19748;BME280;10032;51.386;12.516;2022-12-17T02:45:53;100800.19;;;-3.00;100.00
19748;BME280;10032;51.386;12.516;2022-12-17T02:48:38;100797.88;;;-3.03;100.00
19748;BME280;10032;51.386;12.516;2022-12-17T02:51:23;100809.97;;;-3.01;100.00
19748;BME280;10032;51.386;12.516;2022-12-17T02:54:08;100804.97;;;-3.04;100.00
19748;BME280;10032;51.386;12.516;2022-12-17T02:56:52;100813.38;;;-3.08;100.00
19748;BME280;10032;51.386;12.516;2022-12-17T02:59:44;100809.34;;;-3.12;100.00
19748;BME280;10032;51.386;12.516;2022-12-17T03:02:27;100817.97;;;-3.10;100.00
19748;BME280;10032;51.386;12.516;2022-12-17T03:05:11;100804.19;;;-3.14;100.00
19748;BME280;10032;51.386;12.516;2022-12-17T03:07:55;100815.63;;;-3.13;100.00
19748;BME280;10032;51.386;12.516;2022-12-17T03:10:39;100814.78;;;-3.14;100.00
19748;BME280;10032;51.386;12.516;2022-12-17T03:13:25;100829.81;;;-3.14;100.00
19748;BME280;10032;51.386;12.516;2022-12-17T03:16:11;100821.66;;;-3.21;100.00
19748;BME280;10032;51.386;12.516;2022-12-17T03:18:56;100827.75;;;-3.20;100.00
19748;BME280;10032;51.386;12.516;2022-12-17T03:21:40;100822.78;;;-3.23;100.00
19748;BME280;10032;51.386;12.516;2022-12-17T03:24:24;100827.06;;;-3.22;100.00
19748;BME280;10032;51.386;12.516;2022-12-17T03:27:08;100833.75;;;-3.18;100.00
19748;BME280;10032;51.386;12.516;2022-12-17T03:29:52;100833.75;;;-3.18;100.00
19748;BME280;10032;51.386;12.516;2022-12-17T03:32:36;100822.91;;;-3.25;100.00
19748;BME280;10032;51.386;12.516;2022-12-17T03:35:20;100834.22;;;-3.32;100.00
19748;BME280;10032;51.386;12.516;2022-12-17T03:38:09;100838.25;;;-3.28;100.00
19748;BME280;10032;51.386;12.516;2022-12-17T03:40:53;100834.63;;;-3.27;100.00
19748;BME280;10032;51.386;12.516;2022-12-17T03:43:37;100838.78;;;-3.25;100.00
19748;BME280;10032;51.386;12.516;2022-12-17T03:46:21;100833.38;;;-3.23;100.00
19748;BME280;10032;51.386;12.516;2022-12-17T03:49:05;100834.34;;;-3.24;100.00
19748;BME280;10032;51.386;12.516;2022-12-17T03:51:49;100840.47;;;-3.24;100.00
19748;BME280;10032;51.386;12.516;2022-12-17T03:54:33;100836.00;;;-3.23;100.00
19748;BME280;10032;51.386;12.516;2022-12-17T03:57:17;100841.00;;;-3.20;100.00
19748;BME280;10032;51.386;12.516;2022-12-17T04:00:02;100844.34;;;-3.18;100.00
19748;BME280;10032;51.386;12.516;2022-12-17T04:02:46;100851.59;;;-3.20;100.00
19748;BME280;10032;51.386;12.516;2022-12-17T04:05:30;100854.66;;;-3.15;100.00
19748;BME280;10032;51.386;12.516;2022-12-17T04:08:14;100861.19;;;-3.19;100.00
19748;BME280;10032;51.386;12.516;2022-12-17T04:10:58;100860.78;;;-3.15;100.00
19748;BME280;10032;51.386;12.516;2022-12-17T04:13:42;100867.75;;;-3.14;100.00
19748;BME280;10032;51.386;12.516;2022-12-17T04:16:26;100864.97;;;-3.12;100.00
19748;BME280;10032;51.386;12.516;2022-12-17T04:19:10;100877.50;;;-3.14;100.00
19748;BME280;10032;51.386;12.516;2022-12-17T04:21:54;100876.16;;;-3.18;100.00
19748;BME280;10032;51.386;12.516;2022-12-17T04:24:38;100888.69;;;-3.20;100.00
19748;BME280;10032;51.386;12.516;2022-12-17T04:27:21;100882.41;;;-3.19;100.00
19748;BME280;10032;51.386;12.516;2022-12-17T04:30:06;100886.47;;;-3.25;100.00
19748;BME280;10032;51.386;12.516;2022-12-17T04:32:51;100887.59;;;-3.27;100.00
19748;BME280;10032;51.386;12.516;2022-12-17T04:35:35;100886.47;;;-3.25;100.00
19748;BME280;10032;51.386;12.516;2022-12-17T04:38:19;100894.28;;;-3.23;100.00
19748;BME280;10032;51.386;12.516;2022-12-17T04:41:02;100893.28;;;-3.22;100.00
19748;BME280;10032;51.386;12.516;2022-12-17T04:43:47;100904.44;;;-3.19;100.00
19748;BME280;10032;51.386;12.516;2022-12-17T04:46:30;100896.75;;;-3.22;100.00
19748;BME280;10032;51.386;12.516;2022-12-17T04:49:14;100897.59;;;-3.21;100.00
19748;BME280;10032;51.386;12.516;2022-12-17T04:51:58;100897.34;;;-3.18;100.00
19748;BME280;10032;51.386;12.516;2022-12-17T04:54:42;100902.31;;;-3.15;100.00
19748;BME280;10032;51.386;12.516;2022-12-17T04:57:26;100906.50;;;-3.13;100.00
19748;BME280;10032;51.386;12.516;2022-12-17T05:00:11;100906.78;;;-3.06;100.00
19748;BME280;10032;51.386;12.516;2022-12-17T05:03:03;100900.88;;;-3.00;100.00
19748;BME280;10032;51.386;12.516;2022-12-17T05:05:47;100913.16;;;-2.99;100.00
19748;BME280;10032;51.386;12.516;2022-12-17T05:08:31;100910.91;;;-2.94;100.00
19748;BME280;10032;51.386;12.516;2022-12-17T05:11:15;100920.91;;;-2.88;100.00
19748;BME280;10032;51.386;12.516;2022-12-17T05:13:59;100914.34;;;-2.84;100.00
19748;BME280;10032;51.386;12.516;2022-12-17T05:16:43;100921.72;;;-2.78;100.00
19748;BME280;10032;51.386;12.516;2022-12-17T05:19:27;100923.13;;;-2.74;100.00
19748;BME280;10032;51.386;12.516;2022-12-17T05:22:11;100918.22;;;-2.69;100.00
19748;BME280;10032;51.386;12.516;2022-12-17T05:24:55;100932.84;;;-2.65;100.00
19748;BME280;10032;51.386;12.516;2022-12-17T05:27:39;100935.50;;;-2.65;100.00
19748;BME280;10032;51.386;12.516;2022-12-17T05:30:23;100942.47;;;-2.64;100.00
19748;BME280;10032;51.386;12.516;2022-12-17T05:33:07;100946.19;;;-2.57;100.00
19748;BME280;10032;51.386;12.516;2022-12-17T05:35:51;100945.22;;;-2.56;100.00
19748;BME280;10032;51.386;12.516;2022-12-17T05:38:35;100947.31;;;-2.50;100.00
19748;BME280;10032;51.386;12.516;2022-12-17T05:41:19;100961.22;;;-2.48;100.00
19748;BME280;10032;51.386;12.516;2022-12-17T05:44:03;100960.38;;;-2.49;100.00
19748;BME280;10032;51.386;12.516;2022-12-17T05:46:47;100955.34;;;-2.42;100.00
19748;BME280;10032;51.386;12.516;2022-12-17T05:49:31;100961.50;;;-2.42;100.00
19748;BME280;10032;51.386;12.516;2022-12-17T05:52:15;100959.78;;;-2.33;100.00
19748;BME280;10032;51.386;12.516;2022-12-17T05:54:59;100967.28;;;-2.29;100.00
19748;BME280;10032;51.386;12.516;2022-12-17T05:57:43;100980.09;;;-2.24;100.00
19748;BME280;10032;51.386;12.516;2022-12-17T06:00:27;100979.13;;;-2.23;100.00
19748;BME280;10032;51.386;12.516;2022-12-17T06:03:11;100976.63;;;-2.25;100.00
19748;BME280;10032;51.386;12.516;2022-12-17T06:05:55;100976.47;;;-2.23;100.00
19748;BME280;10032;51.386;12.516;2022-12-17T06:08:40;100989.63;;;-2.31;100.00
19748;BME280;10032;51.386;12.516;2022-12-17T06:11:24;100987.22;;;-2.25;100.00
19748;BME280;10032;51.386;12.516;2022-12-17T06:14:08;100986.91;;;-2.22;100.00
19748;BME280;10032;51.386;12.516;2022-12-17T06:16:52;100993.34;;;-2.24;100.00
19748;BME280;10032;51.386;12.516;2022-12-17T06:19:36;100992.09;;;-2.20;100.00
19748;BME280;10032;51.386;12.516;2022-12-17T06:22:20;100997.38;;;-2.20;100.00
19748;BME280;10032;51.386;12.516;2022-12-17T06:25:04;100988.44;;;-2.19;100.00
19748;BME280;10032;51.386;12.516;2022-12-17T06:27:48;100989.00;;;-2.16;100.00
19748;BME280;10032;51.386;12.516;2022-12-17T06:30:32;100993.72;;;-2.10;100.00
19748;BME280;10032;51.386;12.516;2022-12-17T06:33:16;100989.22;;;-2.09;100.00
19748;BME280;10032;51.386;12.516;2022-12-17T06:36:00;100998.84;;;-2.08;100.00
19748;BME280;10032;51.386;12.516;2022-12-17T06:38:44;100998.44;;;-2.04;100.00
19748;BME280;10032;51.386;12.516;2022-12-17T06:41:28;101008.34;;;-2.06;100.00
19748;BME280;10032;51.386;12.516;2022-12-17T06:44:12;101011.56;;;-2.02;100.00
19748;BME280;10032;51.386;12.516;2022-12-17T06:46:56;101018.38;;;-2.00;100.00
19748;BME280;10032;51.386;12.516;2022-12-17T06:49:40;101019.34;;;-2.01;100.00
19748;BME280;10032;51.386;12.516;2022-12-17T06:52:23;101019.59;;;-1.94;100.00
19748;BME280;10032;51.386;12.516;2022-12-17T06:55:08;101022.84;;;-2.00;100.00
19748;BME280;10032;51.386;12.516;2022-12-17T06:57:59;101021.03;;;-2.00;100.00
19748;BME280;10032;51.386;12.516;2022-12-17T07:00:44;101032.19;;;-1.96;100.00
19748;BME280;10032;51.386;12.516;2022-12-17T07:03:28;101025.63;;;-1.92;100.00
19748;BME280;10032;51.386;12.516;2022-12-17T07:06:12;101030.47;;;-1.88;100.00
19748;BME280;10032;51.386;12.516;2022-12-17T07:08:57;101035.09;;;-1.90;100.00
19748;BME280;10032;51.386;12.516;2022-12-17T07:11:40;101036.06;;;-1.91;100.00
19748;BME280;10032;51.386;12.516;2022-12-17T07:14:25;101035.47;;;-1.85;100.00
19748;BME280;10032;51.386;12.516;2022-12-17T07:17:09;101036.84;;;-1.81;100.00
19748;BME280;10032;51.386;12.516;2022-12-17T07:19:52;101044.81;;;-1.81;100.00
19748;BME280;10032;51.386;12.516;2022-12-17T07:22:36;101049.69;;;-1.76;100.00
19748;BME280;10032;51.386;12.516;2022-12-17T07:25:20;101042.41;;;-1.74;100.00
19748;BME280;10032;51.386;12.516;2022-12-17T07:28:05;101054.69;;;-1.73;100.00
19748;BME280;10032;51.386;12.516;2022-12-17T07:30:49;101061.84;;;-1.74;100.00
19748;BME280;10032;51.386;12.516;2022-12-17T07:33:32;101048.25;;;-1.71;100.00
19748;BME280;10032;51.386;12.516;2022-12-17T07:36:16;101054.16;;;-1.77;100.00
19748;BME280;10032;51.386;12.516;2022-12-17T07:39:00;101072.59;;;-1.75;100.00
19748;BME280;10032;51.386;12.516;2022-12-17T07:41:44;101074.00;;;-1.81;100.00
19748;BME280;10032;51.386;12.516;2022-12-17T07:44:28;101086.28;;;-1.80;100.00
19748;BME280;10032;51.386;12.516;2022-12-17T07:47:12;101095.38;;;-1.82;100.00
19748;BME280;10032;51.386;12.516;2022-12-17T07:49:56;101098.34;;;-1.85;100.00
19748;BME280;10032;51.386;12.516;2022-12-17T07:52:40;101100.03;;;-1.84;100.00
19748;BME280;10032;51.386;12.516;2022-12-17T07:55:24;101087.28;;;-1.81;100.00
19748;BME280;10032;51.386;12.516;2022-12-17T07:58:09;101091.84;;;-1.73;100.00
19748;BME280;10032;51.386;12.516;2022-12-17T08:01:07;101112.84;;;-1.80;100.00
19748;BME280;10032;51.386;12.516;2022-12-17T08:03:51;101107.25;;;-1.77;100.00
19748;BME280;10032;51.386;12.516;2022-12-17T08:06:35;101113.56;;;-1.78;100.00
19748;BME280;10032;51.386;12.516;2022-12-17T08:09:19;101126.53;;;-1.75;100.00
19748;BME280;10032;51.386;12.516;2022-12-17T08:12:03;101136.00;;;-1.72;100.00
19748;BME280;10032;51.386;12.516;2022-12-17T08:14:47;101133.34;;;-1.72;100.00
19748;BME280;10032;51.386;12.516;2022-12-17T08:17:31;101140.94;;;-1.77;100.00
19748;BME280;10032;51.386;12.516;2022-12-17T08:20:15;101146.94;;;-1.75;100.00
19748;BME280;10032;51.386;12.516;2022-12-17T08:23:03;101151.94;;;-1.72;100.00
19748;BME280;10032;51.386;12.516;2022-12-17T08:25:47;101155.59;;;-1.73;100.00
19748;BME280;10032;51.386;12.516;2022-12-17T08:28:31;101162.56;;;-1.72;100.00
19748;BME280;10032;51.386;12.516;2022-12-17T08:31:15;101171.06;;;-1.69;100.00
19748;BME280;10032;51.386;12.516;2022-12-17T08:33:59;101167.88;;;-1.63;100.00
19748;BME280;10032;51.386;12.516;2022-12-17T08:36:43;101170.06;;;-1.58;100.00
19748;BME280;10032;51.386;12.516;2022-12-17T08:39:30;101173.41;;;-1.56;100.00
19748;BME280;10032;51.386;12.516;2022-12-17T08:42:14;101182.63;;;-1.51;100.00
19748;BME280;10032;51.386;12.516;2022-12-17T08:44:58;101174.09;;;-1.54;100.00
19748;BME280;10032;51.386;12.516;2022-12-17T08:47:42;101181.94;;;-1.53;100.00
19748;BME280;10032;51.386;12.516;2022-12-17T08:50:26;101186.47;;;-1.45;100.00
19748;BME280;10032;51.386;12.516;2022-12-17T08:53:10;101181.56;;;-1.40;100.00
19748;BME280;10032;51.386;12.516;2022-12-17T08:55:54;101181.69;;;-1.32;100.00
19748;BME280;10032;51.386;12.516;2022-12-17T08:58:38;101184.94;;;-1.38;100.00
19748;BME280;10032;51.386;12.516;2022-12-17T09:01:22;101173.44;;;-1.39;100.00
19748;BME280;10032;51.386;12.516;2022-12-17T09:04:05;101185.31;;;-1.33;100.00
19748;BME280;10032;51.386;12.516;2022-12-17T09:06:49;101190.63;;;-1.33;100.00
19748;BME280;10032;51.386;12.516;2022-12-17T09:09:33;101196.22;;;-1.36;100.00
19748;BME280;10032;51.386;12.516;2022-12-17T09:12:18;101190.38;;;-1.40;100.00
19748;BME280;10032;51.386;12.516;2022-12-17T09:15:02;101180.53;;;-1.30;100.00
19748;BME280;10032;51.386;12.516;2022-12-17T09:17:46;101188.66;;;-1.31;100.00
19748;BME280;10032;51.386;12.516;2022-12-17T09:20:30;101199.00;;;-1.28;100.00
19748;BME280;10032;51.386;12.516;2022-12-17T09:23:16;101200.06;;;-1.21;100.00
19748;BME280;10032;51.386;12.516;2022-12-17T09:26:00;101196.69;;;-1.14;100.00
19748;BME280;10032;51.386;12.516;2022-12-17T09:28:44;101208.44;;;-1.16;100.00
19748;BME280;10032;51.386;12.516;2022-12-17T09:31:30;101193.56;;;-1.09;100.00
19748;BME280;10032;51.386;12.516;2022-12-17T09:34:14;101205.44;;;-1.04;100.00
19748;BME280;10032;51.386;12.516;2022-12-17T09:36:58;101196.94;;;-1.07;100.00
19748;BME280;10032;51.386;12.516;2022-12-17T09:39:42;101201.63;;;-1.01;100.00
19748;BME280;10032;51.386;12.516;2022-12-17T09:45:24;101201.03;;;-0.95;100.00
19748;BME280;10032;51.386;12.516;2022-12-17T09:48:18;101199.38;;;-0.96;100.00
19748;BME280;10032;51.386;12.516;2022-12-17T09:51:19;101207.41;;;-0.88;100.00
19748;BME280;10032;51.386;12.516;2022-12-17T09:54:05;101205.75;;;-0.89;100.00
19748;BME280;10032;51.386;12.516;2022-12-17T09:56:55;101212.59;;;-0.87;100.00
19748;BME280;10032;51.386;12.516;2022-12-17T09:59:39;101214.78;;;-0.82;100.00
19748;BME280;10032;51.386;12.516;2022-12-17T10:02:25;101220.19;;;-0.92;100.00
19748;BME280;10032;51.386;12.516;2022-12-17T10:05:20;101225.25;;;-0.98;100.00
19748;BME280;10032;51.386;12.516;2022-12-17T10:08:05;101228.31;;;-0.93;100.00
19748;BME280;10032;51.386;12.516;2022-12-17T10:10:51;101235.06;;;-0.99;100.00
19748;BME280;10032;51.386;12.516;2022-12-17T10:13:35;101229.34;;;-1.04;100.00
19748;BME280;10032;51.386;12.516;2022-12-17T10:16:33;101224.13;;;-0.96;100.00
19748;BME280;10032;51.386;12.516;2022-12-17T10:19:38;101221.06;;;-1.01;100.00
19748;BME280;10032;51.386;12.516;2022-12-17T10:22:23;101224.63;;;-1.10;100.00
19748;BME280;10032;51.386;12.516;2022-12-17T10:25:19;101225.03;;;-1.05;100.00
19748;BME280;10032;51.386;12.516;2022-12-17T10:28:23;101222.94;;;-1.11;100.00
19748;BME280;10032;51.386;12.516;2022-12-17T10:31:29;101233.94;;;-1.23;100.00
19748;BME280;10032;51.386;12.516;2022-12-17T10:34:15;101235.63;;;-1.22;100.00
19748;BME280;10032;51.386;12.516;2022-12-17T10:37:01;101237.16;;;-1.20;100.00
19748;BME280;10032;51.386;12.516;2022-12-17T10:39:59;101254.91;;;-1.20;100.00
19748;BME280;10032;51.386;12.516;2022-12-17T10:42:46;101254.03;;;-1.11;100.00
19748;BME280;10032;51.386;12.516;2022-12-17T10:45:32;101250.75;;;-1.05;100.00
19748;BME280;10032;51.386;12.516;2022-12-17T10:54:16;101255.09;;;-1.04;100.00
19748;BME280;10032;51.386;12.516;2022-12-17T10:57:02;101247.91;;;-0.94;100.00
19748;BME280;10032;51.386;12.516;2022-12-17T10:59:48;101252.75;;;-0.90;100.00
19748;BME280;10032;51.386;12.516;2022-12-17T11:02:32;101248.09;;;-1.05;100.00
19748;BME280;10032;51.386;12.516;2022-12-17T11:05:29;101254.16;;;-1.13;100.00
19748;BME280;10032;51.386;12.516;2022-12-17T11:08:17;101264.34;;;-1.08;100.00
19748;BME280;10032;51.386;12.516;2022-12-17T11:11:06;101271.09;;;-1.14;100.00
19748;BME280;10032;51.386;12.516;2022-12-17T11:13:53;101280.06;;;-1.15;100.00
19748;BME280;10032;51.386;12.516;2022-12-17T11:16:52;101280.28;;;-1.08;100.00
19748;BME280;10032;51.386;12.516;2022-12-17T11:19:43;101275.34;;;-1.21;100.00
19748;BME280;10032;51.386;12.516;2022-12-17T11:25:54;101278.81;;;-1.20;100.00
19748;BME280;10032;51.386;12.516;2022-12-17T11:28:39;101277.53;;;-1.16;100.00
19748;BME280;10032;51.386;12.516;2022-12-17T11:34:56;101273.38;;;-1.19;100.00
19748;BME280;10032;51.386;12.516;2022-12-17T11:40:45;101280.88;;;-1.14;100.00
19748;BME280;10032;51.386;12.516;2022-12-17T11:46:49;101288.56;;;-1.11;100.00
19748;BME280;10032;51.386;12.516;2022-12-17T11:49:52;101283.34;;;-1.03;100.00
19748;BME280;10032;51.386;12.516;2022-12-17T11:55:45;101288.38;;;-1.00;100.00
19748;BME280;10032;51.386;12.516;2022-12-17T11:58:41;101282.47;;;-0.94;100.00
19748;BME280;10032;51.386;12.516;2022-12-17T12:07:40;101290.06;;;-0.99;100.00
19748;BME280;10032;51.386;12.516;2022-12-17T12:10:34;101284.13;;;-0.93;100.00
19748;BME280;10032;51.386;12.516;2022-12-17T12:13:35;101290.66;;;-1.05;100.00
19748;BME280;10032;51.386;12.516;2022-12-17T12:16:43;101287.34;;;-1.17;100.00
19748;BME280;10032;51.386;12.516;2022-12-17T12:23:40;101296.34;;;-1.27;100.00
19748;BME280;10032;51.386;12.516;2022-12-17T12:26:35;101294.66;;;-1.28;100.00
19748;BME280;10032;51.386;12.516;2022-12-17T12:33:13;101304.66;;;-1.13;100.00
19748;BME280;10032;51.386;12.516;2022-12-17T12:36:02;101303.53;;;-1.10;100.00
19748;BME280;10032;51.386;12.516;2022-12-17T12:38:58;101298.81;;;-1.16;100.00
19748;BME280;10032;51.386;12.516;2022-12-17T12:42:02;101302.88;;;-1.12;100.00
19748;BME280;10032;51.386;12.516;2022-12-17T12:51:20;101322.69;;;-1.07;100.00
19748;BME280;10032;51.386;12.516;2022-12-17T12:54:26;101322.53;;;-1.05;100.00
19748;BME280;10032;51.386;12.516;2022-12-17T12:57:33;101322.44;;;-1.13;100.00
19748;BME280;10032;51.386;12.516;2022-12-17T13:11:42;101333.81;;;-1.21;100.00
19748;BME280;10032;51.386;12.516;2022-12-17T13:14:15;101335.88;;;-1.15;100.00
19748;BME280;10032;51.386;12.516;2022-12-17T13:19:35;101333.63;;;-1.19;100.00
19748;BME280;10032;51.386;12.516;2022-12-17T13:24:39;101341.34;;;-1.16;100.00
19748;BME280;10032;51.386;12.516;2022-12-17T13:27:29;101340.16;;;-1.04;100.00
19748;BME280;10032;51.386;12.516;2022-12-17T13:29:55;101339.09;;;-1.11;100.00
19748;BME280;10032;51.386;12.516;2022-12-17T13:32:27;101344.44;;;-1.21;100.00
19748;BME280;10032;51.386;12.516;2022-12-17T13:38:14;101353.13;;;-1.28;100.00
19748;BME280;10032;51.386;12.516;2022-12-17T13:40:47;101355.38;;;-1.33;100.00
19748;BME280;10032;51.386;12.516;2022-12-17T13:43:23;101357.47;;;-1.27;100.00
19748;BME280;10032;51.386;12.516;2022-12-17T13:45:51;101362.06;;;-1.29;100.00
19748;BME280;10032;51.386;12.516;2022-12-17T13:48:22;101367.69;;;-1.32;100.00
19748;BME280;10032;51.386;12.516;2022-12-17T13:51:18;101365.44;;;-1.27;100.00
19748;BME280;10032;51.386;12.516;2022-12-17T13:53:53;101368.22;;;-1.29;100.00
19748;BME280;10032;51.386;12.516;2022-12-17T13:56:29;101367.50;;;-1.21;100.00
19748;BME280;10032;51.386;12.516;2022-12-17T13:58:56;101368.78;;;-1.16;100.00
19748;BME280;10032;51.386;12.516;2022-12-17T14:01:27;101375.22;;;-1.18;100.00
19748;BME280;10032;51.386;12.516;2022-12-17T14:03:55;101377.47;;;-1.23;100.00
19748;BME280;10032;51.386;12.516;2022-12-17T14:06:37;101389.75;;;-1.22;100.00
19748;BME280;10032;51.386;12.516;2022-12-17T14:09:03;101391.44;;;-1.21;100.00
19748;BME280;10032;51.386;12.516;2022-12-17T14:11:30;101399.41;;;-1.21;100.00
19748;BME280;10032;51.386;12.516;2022-12-17T14:14:37;101392.00;;;-1.27;100.00
19748;BME280;10032;51.386;12.516;2022-12-17T14:17:05;101390.34;;;-1.28;100.00
19748;BME280;10032;51.386;12.516;2022-12-17T14:19:31;101405.88;;;-1.33;100.00
19748;BME280;10032;51.386;12.516;2022-12-17T14:21:58;101403.50;;;-1.36;100.00
19748;BME280;10032;51.386;12.516;2022-12-17T14:24:27;101411.03;;;-1.32;100.00
19748;BME280;10032;51.386;12.516;2022-12-17T14:26:58;101409.94;;;-1.39;100.00
19748;BME280;10032;51.386;12.516;2022-12-17T14:29:29;101407.97;;;-1.46;100.00
19748;BME280;10032;51.386;12.516;2022-12-17T14:32:00;101412.47;;;-1.47;100.00
19748;BME280;10032;51.386;12.516;2022-12-17T14:34:26;101404.63;;;-1.48;100.00
19748;BME280;10032;51.386;12.516;2022-12-17T14:36:54;101414.69;;;-1.42;100.00
19748;BME280;10032;51.386;12.516;2022-12-17T14:39:29;101416.22;;;-1.40;100.00
19748;BME280;10032;51.386;12.516;2022-12-17T14:41:58;101410.47;;;-1.35;100.00
19748;BME280;10032;51.386;12.516;2022-12-17T14:47:32;101418.03;;;-1.40;100.00
19748;BME280;10032;51.386;12.516;2022-12-17T14:50:07;101430.63;;;-1.42;100.00
19748;BME280;10032;51.386;12.516;2022-12-17T14:52:49;101430.91;;;-1.45;100.00
19748;BME280;10032;51.386;12.516;2022-12-17T15:03:39;101438.75;;;-1.53;100.00
19748;BME280;10032;51.386;12.516;2022-12-17T15:06:07;101437.22;;;-1.56;100.00
19748;BME280;10032;51.386;12.516;2022-12-17T15:08:42;101437.06;;;-1.64;100.00
19748;BME280;10032;51.386;12.516;2022-12-17T15:11:13;101430.63;;;-1.61;100.00
19748;BME280;10032;51.386;12.516;2022-12-17T15:13:39;101434.56;;;-1.65;100.00
19748;BME280;10032;51.386;12.516;2022-12-17T15:16:05;101436.50;;;-1.67;100.00
19748;BME280;10032;51.386;12.516;2022-12-17T15:18:31;101435.25;;;-1.63;100.00
19748;BME280;10032;51.386;12.516;2022-12-17T15:20:56;101437.66;;;-1.60;100.00
19748;BME280;10032;51.386;12.516;2022-12-17T15:23:22;101437.91;;;-1.63;100.00